createdAt,value
2022-10-21T00:00:14.897Z,0.75
2022-10-21T00:03:01.372Z,0.60
2022-10-21T00:05:47.580Z,0.50
2022-10-21T00:08:33.838Z,0.68
2022-10-21T00:11:19.564Z,0.45
2022-10-21T00:14:05.353Z,0.57
2022-10-21T00:16:51.532Z,0.43
2022-10-21T00:19:39.993Z,0.40
2022-10-21T00:22:25.930Z,0.60
2022-10-21T00:25:11.849Z,0.40
2022-10-21T00:27:57.933Z,0.55
2022-10-21T00:30:46.994Z,0.47
2022-10-21T00:33:33.160Z,0.63
2022-10-21T00:36:19.289Z,0.43
2022-10-21T00:39:05.119Z,0.30
2022-10-21T00:41:51.261Z,0.98
2022-10-21T00:44:37.625Z,0.57
2022-10-21T00:47:23.612Z,0.50
2022-10-21T00:50:33.272Z,0.40
2022-10-21T00:53:20.021Z,0.30
2022-10-21T00:56:21.276Z,0.45
2022-10-21T00:59:07.415Z,0.43
2022-10-21T01:01:54.110Z,0.43
2022-10-21T01:04:39.972Z,0.73
2022-10-21T01:07:25.963Z,0.40
2022-10-21T01:10:11.846Z,2.25
2022-10-21T01:13:02.409Z,0.70
2022-10-21T01:16:06.299Z,0.40
2022-10-21T01:19:01.771Z,0.63
2022-10-21T01:21:54.259Z,0.60
2022-10-21T01:25:13.842Z,0.80
2022-10-21T01:28:19.491Z,0.40
2022-10-21T01:31:25.889Z,0.50
2022-10-21T01:34:25.159Z,0.50
2022-10-21T01:37:25.241Z,0.88
2022-10-21T01:40:33.381Z,0.40
2022-10-21T01:43:35.050Z,0.60
2022-10-21T01:46:28.054Z,0.75
2022-10-21T01:49:29.581Z,0.88
2022-10-21T01:52:16.523Z,0.50
2022-10-21T01:55:05.637Z,0.70
2022-10-21T01:57:59.210Z,0.55
2022-10-21T02:03:34.878Z,0.57
2022-10-21T02:06:20.890Z,1.13
2022-10-21T02:09:07.357Z,0.50
2022-10-21T02:11:58.038Z,0.43
2022-10-21T02:14:47.881Z,0.35
2022-10-21T02:17:35.203Z,0.25
2022-10-21T02:20:21.939Z,0.45
2022-10-21T02:23:08.449Z,0.68
2022-10-21T02:25:54.467Z,0.50
2022-10-21T02:31:48.123Z,0.60
2022-10-21T02:35:00.776Z,0.90
2022-10-21T02:38:02.264Z,0.90
2022-10-21T02:40:57.066Z,0.40
2022-10-21T02:43:57.189Z,0.40
2022-10-21T02:46:44.121Z,0.40
2022-10-21T02:49:29.910Z,0.30
2022-10-21T02:52:15.567Z,0.40
2022-10-21T02:55:01.204Z,0.32
2022-10-21T02:57:47.060Z,0.30
2022-10-21T03:00:33.220Z,1.33
2022-10-21T03:03:19.226Z,0.40
2022-10-21T03:06:04.994Z,0.35
2022-10-21T03:08:50.923Z,0.40
2022-10-21T03:11:36.817Z,0.40
2022-10-21T03:14:22.817Z,0.68
2022-10-21T03:17:08.534Z,0.60
2022-10-21T03:19:54.365Z,0.50
2022-10-21T03:22:40.117Z,0.30
2022-10-21T03:25:25.762Z,1.08
2022-10-21T03:28:11.798Z,0.40
2022-10-21T03:30:57.793Z,0.40
2022-10-21T03:33:43.697Z,0.40
2022-10-21T03:36:29.617Z,1.00
2022-10-21T03:39:15.498Z,0.30
2022-10-21T03:42:01.157Z,0.65
2022-10-21T03:44:46.808Z,0.30
2022-10-21T03:47:32.585Z,0.40
2022-10-21T03:50:23.671Z,0.57
2022-10-21T03:53:24.320Z,0.60
2022-10-21T03:56:17.512Z,0.63
2022-10-21T03:59:03.725Z,0.45
2022-10-21T04:01:50.162Z,0.30
2022-10-21T04:04:35.942Z,1.38
2022-10-21T04:07:21.943Z,0.63
2022-10-21T04:10:08.667Z,2.10
2022-10-21T04:12:54.616Z,0.40
2022-10-21T04:15:40.589Z,1.17
2022-10-21T04:18:26.337Z,1.13
2022-10-21T04:21:12.720Z,0.30
2022-10-21T04:23:59.067Z,0.50
2022-10-21T04:26:45.663Z,0.50
2022-10-21T04:29:31.692Z,0.40
2022-10-21T04:32:17.917Z,0.40
2022-10-21T04:35:04.169Z,0.65
2022-10-21T04:37:50.200Z,0.43
2022-10-21T04:40:35.917Z,0.50
2022-10-21T04:43:21.691Z,1.08
2022-10-21T04:46:14.152Z,0.60
2022-10-21T04:49:00.327Z,0.50
2022-10-21T04:51:45.929Z,0.63
2022-10-21T04:54:31.721Z,0.73
2022-10-21T04:57:17.277Z,0.47
2022-10-21T05:00:04.574Z,0.50
2022-10-21T05:02:50.601Z,0.52
2022-10-21T05:05:36.317Z,0.43
2022-10-21T05:08:22.464Z,0.43
2022-10-21T05:11:08.320Z,0.50
2022-10-21T05:13:53.961Z,0.40
2022-10-21T05:16:39.749Z,0.47
2022-10-21T05:19:28.962Z,0.40
2022-10-21T05:22:17.566Z,0.65
2022-10-21T05:25:03.369Z,0.40
2022-10-21T05:27:49.381Z,0.68
2022-10-21T05:30:35.095Z,0.65
2022-10-21T05:33:21.922Z,0.40
2022-10-21T05:36:08.675Z,0.65
2022-10-21T05:38:54.761Z,0.40
2022-10-21T05:41:42.952Z,0.40
2022-10-21T05:44:31.590Z,1.00
2022-10-21T05:47:17.672Z,0.55
2022-10-21T05:50:03.546Z,0.40
2022-10-21T05:52:49.550Z,0.40
2022-10-21T05:55:35.339Z,0.30
2022-10-21T05:58:21.444Z,0.75
2022-10-21T06:01:07.281Z,0.30
2022-10-21T06:03:53.068Z,0.40
2022-10-21T06:06:39.143Z,0.30
2022-10-21T06:09:24.866Z,0.50
2022-10-21T06:12:10.687Z,0.70
2022-10-21T06:14:56.465Z,0.50
2022-10-21T06:17:42.217Z,0.40
2022-10-21T06:20:28.000Z,0.38
2022-10-21T06:23:15.418Z,0.50
2022-10-21T06:26:04.084Z,0.45
2022-10-21T06:28:49.963Z,0.65
2022-10-21T06:31:36.593Z,1.10
2022-10-21T06:34:22.548Z,1.00
2022-10-21T06:37:08.193Z,3.25
2022-10-21T06:39:53.951Z,0.80
2022-10-21T06:42:39.765Z,0.80
2022-10-21T06:45:25.949Z,1.10
2022-10-21T06:48:13.692Z,1.50
2022-10-21T06:51:01.141Z,2.80
2022-10-21T06:53:47.338Z,11.40
2022-10-21T06:56:33.147Z,3.15
2022-10-21T06:59:19.099Z,1.50
2022-10-21T07:02:04.950Z,1.45
2022-10-21T07:04:52.616Z,1.75
2022-10-21T07:07:38.596Z,1.02
2022-10-21T07:10:24.636Z,1.15
2022-10-21T07:13:10.435Z,0.77
2022-10-21T07:16:00.555Z,0.98
2022-10-21T07:18:46.330Z,1.88
2022-10-21T07:21:32.890Z,0.50
2022-10-21T07:24:22.313Z,0.63
2022-10-21T07:27:08.625Z,0.57
2022-10-21T07:29:54.278Z,0.85
2022-10-21T07:32:39.854Z,1.38
2022-10-21T07:35:25.786Z,1.33
2022-10-21T07:38:12.431Z,1.30
2022-10-21T07:40:59.012Z,1.30
2022-10-21T07:43:45.614Z,1.45
2022-10-21T07:46:31.699Z,1.23
2022-10-21T07:49:18.546Z,1.38
2022-10-21T07:52:04.720Z,1.65
2022-10-21T07:54:50.889Z,1.92
2022-10-21T07:57:36.750Z,1.23
2022-10-21T08:00:22.429Z,2.13
2022-10-21T08:03:08.234Z,1.42
2022-10-21T08:05:54.671Z,2.67
2022-10-21T08:08:41.322Z,5.13
2022-10-21T08:11:29.988Z,2.33
2022-10-21T08:14:15.809Z,1.45
2022-10-21T08:17:01.864Z,1.58
2022-10-21T08:19:48.255Z,1.10
2022-10-21T08:22:33.967Z,1.98
2022-10-21T08:25:19.718Z,1.50
2022-10-21T08:28:06.256Z,1.85
2022-10-21T08:30:52.489Z,0.98
2022-10-21T08:33:38.866Z,1.20
2022-10-21T08:36:25.781Z,0.88
2022-10-21T08:39:11.981Z,1.67
2022-10-21T08:42:12.437Z,1.00
2022-10-21T08:45:07.037Z,1.83
2022-10-21T08:47:55.866Z,1.73
2022-10-21T08:50:46.618Z,1.10
2022-10-21T08:53:45.201Z,2.95
2022-10-21T08:56:32.248Z,3.60
2022-10-21T08:59:23.932Z,2.25
2022-10-21T09:02:24.662Z,2.22
2022-10-21T09:05:19.346Z,1.63
2022-10-21T09:08:20.595Z,1.85
2022-10-21T09:11:09.615Z,2.08
2022-10-21T09:14:14.028Z,1.00
2022-10-21T09:17:24.202Z,1.60
2022-10-21T09:20:37.900Z,1.48
2022-10-21T09:23:48.431Z,5.70
2022-10-21T09:26:41.859Z,5.53
2022-10-21T09:29:34.581Z,6.03
2022-10-21T09:35:38.162Z,5.00
2022-10-21T09:38:56.643Z,4.43
2022-10-21T09:41:48.574Z,3.30
2022-10-21T09:44:37.399Z,3.92
2022-10-21T09:47:24.760Z,3.05
2022-10-21T09:50:17.163Z,4.53
2022-10-21T09:53:13.231Z,5.10
2022-10-21T09:56:03.772Z,3.50
2022-10-21T09:58:54.847Z,3.88
2022-10-21T10:01:43.966Z,2.90
2022-10-21T10:04:32.471Z,4.18
2022-10-21T10:07:33.237Z,4.45
2022-10-21T10:10:33.609Z,5.45
2022-10-21T10:13:20.716Z,3.75
2022-10-21T10:16:36.590Z,3.67
2022-10-21T10:19:27.594Z,3.90
2022-10-21T10:22:15.751Z,4.30
2022-10-21T10:25:09.138Z,2.20
2022-10-21T10:27:59.672Z,4.05
2022-10-21T10:30:45.326Z,3.40
2022-10-21T10:33:35.392Z,3.67
2022-10-21T10:36:34.231Z,3.17
2022-10-21T10:39:30.423Z,2.42
2022-10-21T10:42:24.417Z,3.13
2022-10-21T10:45:15.571Z,6.50
2022-10-21T10:48:06.914Z,3.20
2022-10-21T10:50:53.754Z,3.35
2022-10-21T10:53:39.741Z,3.15
2022-10-21T10:56:39.722Z,2.53
2022-10-21T11:00:01.682Z,2.47
2022-10-21T11:03:16.345Z,2.33
2022-10-21T11:06:19.741Z,3.80
2022-10-21T11:09:07.037Z,3.55
2022-10-21T11:11:56.485Z,2.70
2022-10-21T11:14:43.199Z,1.98
2022-10-21T11:17:38.089Z,2.78
2022-10-21T11:20:53.792Z,2.15
2022-10-21T11:24:07.139Z,1.73
2022-10-21T11:27:19.159Z,2.25
2022-10-21T11:34:57.552Z,2.05
2022-10-21T11:38:06.638Z,2.25
2022-10-21T11:40:59.081Z,1.92
2022-10-21T11:44:16.717Z,3.17
2022-10-21T11:47:28.897Z,1.40
2022-10-21T11:53:43.026Z,1.85
2022-10-21T11:57:02.672Z,2.45
2022-10-21T12:00:18.247Z,1.25
2022-10-21T12:03:45.974Z,1.35
2022-10-21T12:06:54.283Z,3.08
2022-10-21T12:10:01.802Z,2.20
2022-10-21T12:13:22.519Z,2.60
2022-10-21T12:16:13.627Z,1.95
2022-10-21T12:19:03.319Z,2.28
2022-10-21T12:21:49.458Z,2.35
2022-10-21T12:24:52.760Z,1.35
2022-10-21T12:28:04.531Z,1.23
2022-10-21T12:35:53.385Z,2.38
2022-10-21T12:38:58.748Z,2.85
2022-10-21T12:41:46.834Z,2.35
2022-10-21T12:44:33.040Z,2.35
2022-10-21T12:47:31.748Z,1.92
2022-10-21T12:50:32.963Z,1.42
2022-10-21T12:53:34.155Z,2.42
2022-10-21T12:56:43.155Z,1.90
2022-10-21T12:59:35.506Z,1.80
2022-10-21T13:02:29.790Z,2.20
2022-10-21T13:05:38.677Z,2.97
2022-10-21T13:08:29.655Z,2.53
2022-10-21T13:11:40.938Z,2.83
2022-10-21T13:15:01.309Z,1.90
2022-10-21T13:17:54.218Z,2.67
2022-10-21T13:20:43.431Z,4.50
2022-10-21T13:23:36.848Z,3.00
2022-10-21T13:29:16.250Z,2.67
2022-10-21T13:32:14.577Z,1.90
2022-10-21T13:35:31.421Z,3.65
2022-10-21T13:38:52.468Z,2.55
2022-10-21T13:41:38.769Z,2.55
2022-10-21T13:45:09.476Z,2.72
2022-10-21T13:48:33.455Z,2.88
2022-10-21T13:51:26.138Z,2.60
2022-10-21T13:54:14.342Z,2.30
2022-10-21T13:57:07.028Z,2.00
2022-10-21T14:00:08.772Z,2.80
2022-10-21T14:03:02.340Z,2.78
2022-10-21T14:05:58.748Z,2.47
2022-10-21T14:08:47.304Z,4.03
2022-10-21T14:11:37.571Z,2.45
2022-10-21T14:14:27.032Z,2.17
2022-10-21T14:17:18.473Z,2.35
2022-10-21T14:20:13.313Z,2.90
2022-10-21T14:23:00.619Z,3.10
2022-10-21T14:25:50.457Z,3.35
2022-10-21T14:28:37.121Z,3.20
2022-10-21T14:31:22.789Z,4.88
2022-10-21T14:34:22.026Z,4.32
2022-10-21T14:37:12.207Z,2.97
2022-10-21T14:40:12.517Z,2.00
2022-10-21T14:43:09.947Z,2.97
2022-10-21T14:45:56.043Z,2.67
2022-10-21T14:48:59.907Z,3.45
2022-10-21T14:54:42.034Z,3.92
2022-10-21T14:57:40.814Z,3.30
2022-10-21T15:00:30.163Z,3.13
2022-10-21T15:03:16.277Z,2.97
2022-10-21T15:06:27.037Z,3.13
2022-10-21T15:09:13.155Z,2.22
2022-10-21T15:12:22.380Z,3.08
2022-10-21T15:15:49.711Z,1.92
2022-10-21T15:18:44.291Z,2.55
2022-10-21T15:22:02.584Z,2.75
2022-10-21T15:24:50.676Z,2.45
2022-10-21T15:27:42.645Z,2.28
2022-10-21T15:30:35.063Z,2.00
2022-10-21T15:33:20.801Z,2.15
2022-10-21T15:36:11.976Z,1.30
2022-10-21T15:38:57.653Z,1.58
2022-10-21T15:41:43.338Z,1.17
2022-10-21T15:44:31.104Z,1.33
2022-10-21T15:47:17.278Z,3.17
2022-10-21T15:50:12.866Z,2.08
2022-10-21T15:52:58.615Z,1.40
2022-10-21T15:55:44.648Z,1.08
2022-10-21T15:58:32.014Z,1.38
2022-10-21T16:01:18.170Z,0.90
2022-10-21T16:04:04.339Z,0.95
2022-10-21T16:06:51.410Z,0.98
2022-10-21T16:09:37.235Z,0.60
2022-10-21T16:12:23.129Z,1.33
2022-10-21T16:15:09.900Z,0.80
2022-10-21T16:17:57.832Z,1.13
2022-10-21T16:20:44.115Z,1.50
2022-10-21T16:23:31.718Z,0.60
2022-10-21T16:26:24.205Z,0.68
2022-10-21T16:29:21.126Z,0.95
2022-10-21T16:32:09.132Z,1.10
2022-10-21T16:34:54.901Z,1.48
2022-10-21T16:37:41.438Z,2.13
2022-10-21T16:40:31.709Z,0.70
2022-10-21T16:43:17.805Z,0.95
2022-10-21T16:46:03.497Z,0.60
2022-10-21T16:48:49.271Z,1.20
2022-10-21T16:51:36.588Z,0.95
2022-10-21T16:54:23.389Z,0.60
2022-10-21T16:57:09.191Z,0.30
2022-10-21T16:59:54.878Z,0.70
2022-10-21T17:02:40.679Z,0.40
2022-10-21T17:05:26.869Z,0.55
2022-10-21T17:08:12.712Z,1.27
2022-10-21T17:10:58.410Z,0.60
2022-10-21T17:13:45.049Z,0.88
2022-10-21T17:16:31.439Z,1.15
2022-10-21T17:19:17.495Z,1.67
2022-10-21T17:22:03.562Z,2.65
2022-10-21T17:24:49.840Z,1.67
2022-10-21T17:27:36.211Z,1.20
2022-10-21T17:30:22.522Z,2.10
2022-10-21T17:33:13.384Z,1.20
2022-10-21T17:36:00.273Z,1.25
2022-10-21T17:38:46.877Z,1.30
2022-10-21T17:41:32.962Z,0.95
2022-10-21T17:44:19.137Z,0.75
2022-10-21T17:47:05.240Z,0.70
2022-10-21T17:49:50.983Z,1.10
2022-10-21T17:52:37.996Z,0.80
2022-10-21T17:55:24.052Z,0.85
2022-10-21T17:58:09.947Z,1.23
2022-10-21T18:00:56.980Z,0.82
2022-10-21T18:03:43.275Z,0.57
2022-10-21T18:06:29.353Z,0.73
2022-10-21T18:09:15.633Z,0.75
2022-10-21T18:12:04.242Z,1.10
2022-10-21T18:14:51.648Z,0.75
2022-10-21T18:17:40.014Z,0.50
2022-10-21T18:20:26.098Z,1.17
2022-10-21T18:23:13.032Z,1.67
2022-10-21T18:26:12.376Z,0.47
2022-10-21T18:29:00.466Z,0.85
2022-10-21T18:31:46.668Z,1.23
2022-10-21T18:34:33.946Z,2.67
2022-10-21T18:37:19.972Z,0.57
2022-10-21T18:40:06.623Z,0.82
2022-10-21T18:42:52.274Z,0.52
2022-10-21T18:45:38.124Z,0.90
2022-10-21T18:48:24.220Z,0.57
2022-10-21T18:51:11.970Z,0.57
2022-10-21T18:53:58.027Z,0.82
2022-10-21T18:56:45.043Z,0.80
2022-10-21T18:59:30.781Z,0.90
2022-10-21T19:02:22.043Z,1.73
2022-10-21T19:05:08.220Z,1.30
2022-10-21T19:07:54.033Z,1.48
2022-10-21T19:10:42.205Z,0.63
2022-10-21T19:13:28.400Z,1.35
2022-10-21T19:16:14.114Z,0.60
2022-10-21T19:18:59.982Z,1.40
2022-10-21T19:21:45.666Z,1.08
2022-10-21T19:24:32.261Z,1.85
2022-10-21T19:27:18.732Z,1.40
2022-10-21T19:30:05.079Z,1.88
2022-10-21T19:32:50.887Z,1.00
2022-10-21T19:35:36.806Z,0.63
2022-10-21T19:38:39.701Z,2.05
2022-10-21T19:41:29.604Z,4.57
2022-10-21T19:44:16.189Z,1.95
2022-10-21T19:47:02.116Z,1.65
2022-10-21T19:49:48.576Z,1.65
2022-10-21T19:52:34.369Z,1.42
2022-10-21T19:55:20.221Z,1.52
2022-10-21T19:58:06.469Z,3.28
2022-10-21T20:01:01.552Z,1.55
2022-10-21T20:03:48.743Z,1.17
2022-10-21T20:06:37.130Z,1.23
2022-10-21T20:09:23.441Z,0.75
2022-10-21T20:12:10.335Z,1.90
2022-10-21T20:14:56.458Z,2.08
2022-10-21T20:17:42.207Z,1.83
2022-10-21T20:20:28.319Z,1.23
2022-10-21T20:23:14.693Z,1.73
2022-10-21T20:26:00.798Z,1.40
2022-10-21T20:28:46.890Z,1.48
2022-10-21T20:31:32.709Z,1.52
2022-10-21T20:34:18.747Z,0.82
2022-10-21T20:37:04.438Z,0.93
2022-10-21T20:39:50.255Z,0.93
2022-10-21T20:42:36.124Z,2.13
2022-10-21T20:45:22.088Z,1.30
2022-10-21T20:48:08.188Z,0.90
2022-10-21T20:51:05.575Z,1.08
2022-10-21T20:53:53.852Z,1.20
2022-10-21T20:56:41.010Z,0.85
2022-10-21T20:59:26.776Z,1.00
2022-10-21T21:02:12.602Z,1.10
2022-10-21T21:04:58.631Z,1.33
2022-10-21T21:07:44.267Z,1.20
2022-10-21T21:10:30.849Z,0.77
2022-10-21T21:13:16.870Z,1.92
2022-10-21T21:16:07.605Z,0.82
2022-10-21T21:19:05.748Z,1.33
2022-10-21T21:21:52.523Z,0.95
2022-10-21T21:24:38.520Z,0.85
2022-10-21T21:27:24.656Z,0.65
2022-10-21T21:30:10.853Z,0.77
2022-10-21T21:32:56.532Z,0.75
2022-10-21T21:35:42.398Z,2.47
2022-10-21T21:38:28.826Z,1.10
2022-10-21T21:41:16.702Z,1.92
2022-10-21T21:44:04.482Z,1.50
2022-10-21T21:46:50.281Z,1.02
2022-10-21T21:49:36.151Z,1.15
2022-10-21T21:52:22.736Z,1.58
2022-10-21T21:55:08.785Z,1.00
2022-10-21T21:57:54.707Z,1.25
2022-10-21T22:00:40.347Z,0.95
2022-10-21T22:03:25.962Z,1.08
2022-10-21T22:06:11.809Z,1.30
2022-10-21T22:08:58.016Z,0.60
2022-10-21T22:11:43.814Z,1.00
2022-10-21T22:14:29.649Z,0.95
2022-10-21T22:17:15.285Z,1.52
2022-10-21T22:20:01.177Z,0.70
2022-10-21T22:22:47.242Z,0.90
2022-10-21T22:25:33.530Z,0.70
2022-10-21T22:28:19.569Z,1.05
2022-10-21T22:31:10.944Z,1.00
2022-10-21T22:33:57.044Z,1.15
2022-10-21T22:36:43.132Z,1.90
2022-10-21T22:39:29.091Z,1.25
2022-10-21T22:42:14.770Z,1.77
2022-10-21T22:45:00.406Z,1.50
2022-10-21T22:47:46.018Z,2.00
2022-10-21T22:50:32.146Z,2.00
2022-10-21T22:53:17.930Z,2.83
2022-10-21T22:56:04.212Z,2.20
2022-10-21T22:58:50.000Z,2.15
2022-10-21T23:01:35.830Z,1.50
2022-10-21T23:04:21.320Z,1.20
2022-10-21T23:07:07.159Z,1.30
2022-10-21T23:09:52.934Z,0.82
2022-10-21T23:12:39.075Z,0.82
2022-10-21T23:15:24.935Z,0.65
2022-10-21T23:18:11.163Z,0.90
2022-10-21T23:20:57.097Z,1.73
2022-10-21T23:23:43.158Z,1.27
2022-10-21T23:26:29.364Z,1.63
2022-10-21T23:29:16.177Z,1.10
2022-10-21T23:32:02.293Z,0.85
2022-10-21T23:34:48.114Z,1.00
2022-10-21T23:37:33.738Z,0.60
2022-10-21T23:40:19.545Z,0.95
2022-10-21T23:43:05.318Z,1.13
2022-10-21T23:45:51.140Z,1.20
2022-10-21T23:48:38.204Z,1.00
2022-10-21T23:51:24.290Z,0.63
2022-10-21T23:54:09.929Z,1.40
2022-10-21T23:56:55.525Z,1.63
2022-10-21T23:59:41.299Z,0.75
